createdAt,value
2022-09-22T00:01:05.500Z,12.88
2022-09-22T00:03:37.770Z,12.48
2022-09-22T00:06:07.388Z,12.65
2022-09-22T00:08:38.228Z,12.99
2022-09-22T00:11:06.693Z,12.68
2022-09-22T00:13:34.696Z,12.84
2022-09-22T00:16:02.853Z,12.75
2022-09-22T00:18:29.916Z,12.61
2022-09-22T00:20:56.671Z,12.72
2022-09-22T00:23:27.433Z,12.89
2022-09-22T00:25:54.004Z,12.75
2022-09-22T00:28:21.671Z,12.68
2022-09-22T00:30:48.228Z,12.90
2022-09-22T00:33:14.849Z,12.59
2022-09-22T00:35:41.498Z,12.82
2022-09-22T00:38:08.745Z,12.81
2022-09-22T00:40:36.297Z,12.44
2022-09-22T00:43:17.979Z,12.41
2022-09-22T00:45:47.855Z,12.01
2022-09-22T00:48:14.931Z,12.61
2022-09-22T00:50:41.791Z,12.69
2022-09-22T00:53:15.548Z,12.38
2022-09-22T00:55:49.412Z,12.66
2022-09-22T00:58:19.289Z,12.60
2022-09-22T01:00:46.174Z,12.39
2022-09-22T01:03:18.957Z,12.54
2022-09-22T01:05:47.351Z,12.80
2022-09-22T01:08:16.122Z,12.84
2022-09-22T01:10:43.443Z,13.01
2022-09-22T01:13:12.713Z,12.97
2022-09-22T01:15:45.956Z,12.89
2022-09-22T01:18:28.750Z,12.85
2022-09-22T01:21:20.450Z,12.63
2022-09-22T01:23:57.245Z,12.31
2022-09-22T01:26:40.182Z,12.27
2022-09-22T01:29:46.162Z,12.15
2022-09-22T01:32:50.909Z,12.09
2022-09-22T01:35:38.201Z,12.23
2022-09-22T01:38:44.206Z,12.33
2022-09-22T01:41:19.954Z,12.18
2022-09-22T01:43:57.170Z,11.91
2022-09-22T01:46:34.905Z,11.87
2022-09-22T01:49:08.166Z,11.98
2022-09-22T01:51:58.077Z,11.93
2022-09-22T01:54:32.116Z,11.78
2022-09-22T01:57:17.580Z,11.80
2022-09-22T01:59:49.234Z,12.15
2022-09-22T02:02:34.601Z,11.96
2022-09-22T02:05:05.928Z,11.98
2022-09-22T02:07:40.669Z,11.47
2022-09-22T02:10:11.862Z,11.06
2022-09-22T02:12:39.067Z,11.26
2022-09-22T02:15:30.155Z,11.42
2022-09-22T02:18:02.963Z,11.39
2022-09-22T02:20:29.970Z,11.61
2022-09-22T02:22:57.186Z,11.58
2022-09-22T02:25:24.986Z,11.43
2022-09-22T02:27:56.199Z,11.61
2022-09-22T02:30:23.199Z,11.66
2022-09-22T02:32:53.876Z,10.73
2022-09-22T02:35:21.748Z,10.55
2022-09-22T02:37:51.214Z,11.32
2022-09-22T02:40:36.227Z,11.43
2022-09-22T02:43:22.095Z,11.46
2022-09-22T02:45:51.832Z,11.67
2022-09-22T02:48:23.350Z,11.47
2022-09-22T02:50:51.419Z,11.66
2022-09-22T02:53:18.452Z,11.84
2022-09-22T02:55:46.201Z,11.13
2022-09-22T02:58:15.338Z,11.56
2022-09-22T03:00:42.602Z,11.32
2022-09-22T03:03:10.971Z,11.64
2022-09-22T03:05:38.405Z,11.96
2022-09-22T03:08:05.353Z,11.40
2022-09-22T03:10:32.141Z,11.56
2022-09-22T03:13:15.631Z,11.45
2022-09-22T03:15:44.304Z,11.78
2022-09-22T03:18:10.968Z,11.96
2022-09-22T03:20:37.618Z,11.86
2022-09-22T03:23:04.225Z,11.91
2022-09-22T03:25:30.923Z,12.00
2022-09-22T03:27:57.744Z,11.92
2022-09-22T03:30:24.320Z,11.60
2022-09-22T03:32:50.903Z,12.00
2022-09-22T03:35:17.615Z,11.71
2022-09-22T03:37:45.780Z,11.88
2022-09-22T03:40:12.863Z,11.67
2022-09-22T03:42:39.503Z,11.83
2022-09-22T03:45:06.479Z,11.97
2022-09-22T03:47:33.121Z,12.08
2022-09-22T03:49:59.775Z,12.24
2022-09-22T03:52:26.378Z,12.13
2022-09-22T03:54:54.553Z,12.21
2022-09-22T03:57:21.454Z,11.86
2022-09-22T03:59:48.158Z,11.75
2022-09-22T04:02:14.840Z,11.90
2022-09-22T04:04:41.615Z,11.82
2022-09-22T04:07:08.308Z,11.42
2022-09-22T04:09:34.936Z,11.91
2022-09-22T04:12:02.208Z,11.54
2022-09-22T04:14:28.833Z,11.75
2022-09-22T04:16:55.560Z,11.56
2022-09-22T04:19:22.867Z,11.68
2022-09-22T04:21:54.617Z,11.89
2022-09-22T04:24:24.610Z,11.92
2022-09-22T04:27:17.994Z,11.98
2022-09-22T04:29:38.264Z,11.50
2022-09-22T04:32:05.469Z,11.87
2022-09-22T04:34:32.126Z,12.16
2022-09-22T04:36:58.743Z,11.74
2022-09-22T04:39:26.482Z,11.49
2022-09-22T04:41:53.058Z,12.05
2022-09-22T04:44:19.704Z,11.90
2022-09-22T04:46:46.366Z,12.01
2022-09-22T04:49:13.982Z,11.73
2022-09-22T04:51:40.723Z,11.77
2022-09-22T04:54:07.367Z,11.29
2022-09-22T04:56:34.127Z,11.62
2022-09-22T04:59:00.850Z,11.98
2022-09-22T05:01:29.603Z,11.76
2022-09-22T05:03:56.346Z,12.39
2022-09-22T05:06:22.984Z,12.22
2022-09-22T05:08:49.618Z,12.26
2022-09-22T05:11:16.252Z,12.17
2022-09-22T05:13:42.828Z,11.36
2022-09-22T05:16:09.530Z,11.97
2022-09-22T05:18:36.263Z,11.82
2022-09-22T05:21:02.943Z,11.90
2022-09-22T05:23:29.608Z,11.23
2022-09-22T05:25:56.963Z,11.14
2022-09-22T05:28:24.312Z,11.15
2022-09-22T05:30:51.975Z,11.72
2022-09-22T05:33:19.234Z,11.81
2022-09-22T05:35:46.189Z,12.05
2022-09-22T05:38:12.950Z,11.98
2022-09-22T05:40:39.565Z,12.18
2022-09-22T05:43:06.210Z,12.45
2022-09-22T05:45:32.917Z,12.47
2022-09-22T05:47:59.534Z,12.69
2022-09-22T05:50:26.283Z,12.98
2022-09-22T05:53:03.275Z,13.15
2022-09-22T05:55:29.939Z,12.58
2022-09-22T05:57:57.506Z,12.47
2022-09-22T06:00:24.183Z,12.59
2022-09-22T06:02:50.969Z,12.63
2022-09-22T06:05:19.529Z,12.28
2022-09-22T06:07:46.736Z,12.64
2022-09-22T06:10:13.384Z,12.53
2022-09-22T06:12:40.184Z,12.05
2022-09-22T06:15:07.419Z,12.06
2022-09-22T06:17:34.106Z,11.80
2022-09-22T06:20:00.928Z,12.16
2022-09-22T06:22:27.548Z,11.79
2022-09-22T06:24:54.144Z,11.69
2022-09-22T06:27:20.749Z,12.39
2022-09-22T06:29:47.364Z,12.52
2022-09-22T06:32:13.950Z,13.17
2022-09-22T06:34:40.546Z,13.19
2022-09-22T06:37:11.635Z,13.36
2022-09-22T06:39:38.227Z,12.57
2022-09-22T06:42:06.187Z,12.74
2022-09-22T06:44:32.895Z,13.17
2022-09-22T06:47:05.307Z,13.25
2022-09-22T06:49:32.063Z,13.64
2022-09-22T06:51:58.716Z,13.05
2022-09-22T06:54:25.855Z,12.90
2022-09-22T06:56:52.726Z,12.44
2022-09-22T06:59:19.810Z,12.76
2022-09-22T07:01:47.056Z,12.09
2022-09-22T07:04:14.447Z,11.87
2022-09-22T07:06:42.688Z,12.81
2022-09-22T07:09:09.410Z,13.28
2022-09-22T07:11:40.021Z,13.14
2022-09-22T07:14:08.573Z,12.33
2022-09-22T07:16:36.494Z,12.41
2022-09-22T07:19:04.864Z,12.83
2022-09-22T07:21:35.228Z,13.93
2022-09-22T07:24:02.787Z,13.28
2022-09-22T07:26:32.955Z,13.53
2022-09-22T07:29:02.213Z,14.04
2022-09-22T07:31:32.055Z,13.55
2022-09-22T07:34:02.175Z,13.39
2022-09-22T07:36:31.146Z,13.88
2022-09-22T07:39:03.881Z,13.24
2022-09-22T07:41:32.213Z,12.78
2022-09-22T07:44:19.186Z,13.31
2022-09-22T07:46:46.364Z,13.89
2022-09-22T07:49:15.283Z,13.96
2022-09-22T07:51:42.202Z,13.56
2022-09-22T07:54:08.994Z,13.27
2022-09-22T07:56:40.207Z,13.16
2022-09-22T07:59:11.990Z,13.26
2022-09-22T08:01:44.436Z,13.82
2022-09-22T08:04:16.004Z,13.69
2022-09-22T08:06:44.793Z,14.01
2022-09-22T08:09:12.908Z,13.41
2022-09-22T08:11:39.642Z,13.53
2022-09-22T08:14:08.601Z,13.80
2022-09-22T08:16:39.550Z,14.07
2022-09-22T08:19:12.631Z,13.81
2022-09-22T08:21:48.811Z,13.99
2022-09-22T08:24:21.453Z,13.79
2022-09-22T08:26:53.359Z,14.25
2022-09-22T08:29:20.658Z,14.53
2022-09-22T08:31:47.864Z,14.54
2022-09-22T08:34:16.502Z,14.72
2022-09-22T08:36:47.346Z,14.36
2022-09-22T08:39:15.110Z,15.05
2022-09-22T08:41:52.084Z,14.41
2022-09-22T08:44:26.166Z,14.54
2022-09-22T08:46:54.803Z,14.77
2022-09-22T08:49:51.191Z,14.58
2022-09-22T08:52:50.318Z,14.28
2022-09-22T08:55:23.180Z,14.65
2022-09-22T08:58:03.111Z,15.41
2022-09-22T09:00:49.055Z,15.51
2022-09-22T09:03:57.761Z,15.14
2022-09-22T09:06:56.569Z,15.57
2022-09-22T09:09:50.338Z,15.43
2022-09-22T09:12:42.901Z,14.70
2022-09-22T09:15:34.097Z,14.78
2022-09-22T09:18:04.290Z,14.71
2022-09-22T09:20:39.004Z,14.92
2022-09-22T09:23:15.667Z,14.99
2022-09-22T09:25:43.176Z,15.49
2022-09-22T09:28:24.170Z,14.72
2022-09-22T09:31:02.466Z,15.39
2022-09-22T09:34:06.210Z,15.70
2022-09-22T09:36:37.802Z,15.76
2022-09-22T09:39:14.851Z,15.44
2022-09-22T09:41:46.739Z,15.13
2022-09-22T09:44:40.191Z,15.06
2022-09-22T09:47:19.580Z,15.43
2022-09-22T09:49:52.694Z,15.12
2022-09-22T09:52:20.991Z,15.34
2022-09-22T09:54:48.441Z,15.43
2022-09-22T09:57:20.145Z,15.58
2022-09-22T10:00:07.468Z,16.04
2022-09-22T10:03:03.086Z,15.90
2022-09-22T10:05:31.895Z,15.89
2022-09-22T10:08:03.606Z,16.11
2022-09-22T10:10:31.311Z,16.01
2022-09-22T10:13:00.693Z,15.13
2022-09-22T10:15:27.265Z,15.82
2022-09-22T10:17:53.902Z,15.87
2022-09-22T10:20:26.352Z,15.78
2022-09-22T10:22:54.656Z,15.73
2022-09-22T10:25:27.409Z,15.37
2022-09-22T10:28:04.248Z,15.83
2022-09-22T10:30:37.808Z,16.00
2022-09-22T10:33:15.412Z,16.09
2022-09-22T10:35:47.364Z,16.21
2022-09-22T10:38:20.585Z,15.85
2022-09-22T10:40:53.615Z,16.27
2022-09-22T10:43:30.146Z,16.37
2022-09-22T10:46:17.176Z,16.25
2022-09-22T10:48:54.812Z,15.92
2022-09-22T10:51:36.714Z,16.35
2022-09-22T10:54:25.111Z,15.80
2022-09-22T10:57:09.457Z,16.30
2022-09-22T10:59:55.879Z,16.86
2022-09-22T11:02:41.384Z,16.08
2022-09-22T11:05:44.818Z,16.79
2022-09-22T11:08:32.745Z,16.85
2022-09-22T11:11:25.212Z,16.54
2022-09-22T11:14:08.057Z,16.88
2022-09-22T11:16:48.996Z,16.70
2022-09-22T11:19:21.303Z,16.60
2022-09-22T11:22:06.670Z,16.33
2022-09-22T11:24:44.438Z,17.18
2022-09-22T11:27:29.016Z,17.71
2022-09-22T11:30:11.711Z,18.01
2022-09-22T11:32:47.220Z,18.25
2022-09-22T11:35:22.618Z,18.06
2022-09-22T11:37:58.739Z,17.77
2022-09-22T11:41:15.636Z,17.13
2022-09-22T11:43:57.093Z,17.16
2022-09-22T11:46:55.267Z,17.44
2022-09-22T11:49:40.364Z,16.08
2022-09-22T11:52:17.463Z,16.26
2022-09-22T11:55:05.702Z,16.18
2022-09-22T11:57:38.758Z,15.75
2022-09-22T12:00:15.454Z,15.86
2022-09-22T12:02:54.893Z,15.51
2022-09-22T12:05:30.584Z,15.00
2022-09-22T12:08:05.201Z,14.89
2022-09-22T12:10:44.740Z,15.11
2022-09-22T12:13:21.566Z,15.65
2022-09-22T12:18:33.818Z,16.14
2022-09-22T12:21:19.433Z,16.53
2022-09-22T12:23:51.453Z,16.27
2022-09-22T12:26:34.114Z,16.32
2022-09-22T12:29:04.681Z,16.68
2022-09-22T12:31:37.922Z,16.57
2022-09-22T12:34:14.929Z,17.04
2022-09-22T12:36:42.492Z,17.19
2022-09-22T12:39:12.091Z,16.80
2022-09-22T12:41:57.845Z,17.00
2022-09-22T12:44:28.096Z,16.40
2022-09-22T12:47:01.483Z,15.96
2022-09-22T12:49:28.616Z,16.15
2022-09-22T12:51:55.260Z,16.54
2022-09-22T12:54:21.824Z,16.34
2022-09-22T12:57:08.568Z,16.15
2022-09-22T12:59:38.464Z,16.13
2022-09-22T13:02:17.497Z,16.38
2022-09-22T13:04:56.023Z,16.58
2022-09-22T13:07:53.660Z,16.06
2022-09-22T13:10:23.086Z,16.34
2022-09-22T13:13:33.431Z,16.64
2022-09-22T13:16:02.916Z,16.97
2022-09-22T13:18:39.859Z,17.14
2022-09-22T13:21:12.418Z,17.63
2022-09-22T13:23:51.877Z,17.77
2022-09-22T13:26:24.790Z,17.84
2022-09-22T13:29:18.033Z,17.67
2022-09-22T13:32:07.671Z,17.72
2022-09-22T13:34:37.236Z,17.67
2022-09-22T13:37:17.810Z,17.96
2022-09-22T13:39:49.329Z,18.28
2022-09-22T13:42:22.354Z,18.07
2022-09-22T13:44:59.109Z,16.49
2022-09-22T13:47:28.194Z,16.54
2022-09-22T13:50:01.421Z,16.46
2022-09-22T13:52:34.900Z,15.88
2022-09-22T13:55:19.886Z,16.17
2022-09-22T13:57:47.367Z,16.40
2022-09-22T14:00:55.487Z,16.65
2022-09-22T14:03:27.803Z,16.45
2022-09-22T14:05:55.838Z,16.14
2022-09-22T14:08:30.758Z,16.51
2022-09-22T14:10:59.613Z,16.12
2022-09-22T14:13:41.251Z,15.71
2022-09-22T14:16:16.138Z,15.49
2022-09-22T14:18:46.579Z,15.43
2022-09-22T14:21:13.859Z,15.98
2022-09-22T14:23:50.016Z,16.21
2022-09-22T14:26:27.167Z,16.48
2022-09-22T14:28:56.117Z,16.18
2022-09-22T14:31:27.209Z,15.37
2022-09-22T14:33:55.379Z,16.06
2022-09-22T14:36:25.949Z,16.54
2022-09-22T14:39:09.298Z,16.70
2022-09-22T14:41:38.148Z,16.69
2022-09-22T14:44:26.854Z,16.95
2022-09-22T14:46:55.695Z,16.93
2022-09-22T14:49:43.364Z,17.21
2022-09-22T14:52:32.667Z,16.89
2022-09-22T14:55:07.491Z,16.70
2022-09-22T14:57:35.669Z,17.01
2022-09-22T15:00:32.055Z,17.30
2022-09-22T15:02:59.461Z,17.05
2022-09-22T15:05:33.876Z,17.48
2022-09-22T15:08:02.036Z,17.66
2022-09-22T15:10:35.908Z,17.68
2022-09-22T15:13:31.591Z,17.64
2022-09-22T15:15:58.694Z,17.74
2022-09-22T15:18:29.813Z,17.46
2022-09-22T15:21:14.068Z,17.18
2022-09-22T15:23:42.710Z,17.05
2022-09-22T15:26:24.128Z,16.34
2022-09-22T15:28:53.846Z,16.43
2022-09-22T15:31:26.940Z,16.56
2022-09-22T15:34:00.208Z,16.36
2022-09-22T15:36:30.571Z,16.12
2022-09-22T15:39:06.947Z,15.44
2022-09-22T15:41:34.906Z,15.57
2022-09-22T15:44:02.758Z,15.13
2022-09-22T15:46:34.076Z,15.38
2022-09-22T15:49:09.679Z,15.16
2022-09-22T15:51:36.425Z,15.17
2022-09-22T15:54:03.281Z,15.15
2022-09-22T15:56:30.511Z,15.30
2022-09-22T15:59:01.533Z,15.00
2022-09-22T16:01:29.699Z,15.10
2022-09-22T16:04:00.148Z,15.67
2022-09-22T16:06:27.590Z,15.44
2022-09-22T16:08:55.444Z,15.38
2022-09-22T16:11:30.424Z,15.44
2022-09-22T16:14:00.569Z,15.33
2022-09-22T16:16:29.479Z,15.56
2022-09-22T16:18:57.073Z,15.68
2022-09-22T16:21:33.112Z,15.30
2022-09-22T16:24:08.585Z,15.65
2022-09-22T16:26:37.723Z,15.81
2022-09-22T16:29:05.451Z,15.91
2022-09-22T16:31:32.097Z,15.86
2022-09-22T16:34:01.382Z,15.92
2022-09-22T16:36:31.130Z,15.84
2022-09-22T16:38:57.741Z,15.77
2022-09-22T16:41:24.910Z,15.52
2022-09-22T16:43:52.669Z,15.57
2022-09-22T16:46:30.069Z,15.53
2022-09-22T16:49:00.920Z,15.27
2022-09-22T16:51:28.371Z,15.42
2022-09-22T16:53:55.378Z,15.41
2022-09-22T16:56:30.384Z,15.33
2022-09-22T16:58:57.504Z,15.00
2022-09-22T17:01:24.515Z,15.16
2022-09-22T17:03:52.553Z,15.50
2022-09-22T17:06:25.383Z,15.38
2022-09-22T17:08:53.629Z,15.19
2022-09-22T17:11:23.444Z,15.21
2022-09-22T17:13:50.821Z,14.67
2022-09-22T17:16:21.788Z,14.80
2022-09-22T17:18:52.753Z,14.86
2022-09-22T17:21:23.328Z,15.01
2022-09-22T17:23:51.790Z,15.28
2022-09-22T17:26:19.980Z,15.42
2022-09-22T17:28:47.731Z,15.46
2022-09-22T17:31:14.483Z,15.39
2022-09-22T17:33:52.281Z,15.39
2022-09-22T17:36:21.194Z,15.44
2022-09-22T17:38:50.719Z,15.45
2022-09-22T17:41:22.522Z,15.24
2022-09-22T17:43:55.505Z,15.25
2022-09-22T17:46:23.525Z,15.14
2022-09-22T17:49:12.546Z,15.16
2022-09-22T17:51:58.954Z,15.13
2022-09-22T17:54:45.378Z,15.01
2022-09-22T17:57:17.945Z,14.83
2022-09-22T17:59:45.179Z,14.82
2022-09-22T18:02:14.455Z,14.64
2022-09-22T18:04:43.582Z,14.79
2022-09-22T18:07:23.878Z,14.97
2022-09-22T18:09:55.549Z,14.34
2022-09-22T18:12:24.857Z,13.50
2022-09-22T18:14:53.524Z,13.98
2022-09-22T18:17:23.965Z,14.37
2022-09-22T18:19:54.062Z,14.08
2022-09-22T18:22:22.191Z,13.57
2022-09-22T18:24:50.572Z,14.10
2022-09-22T18:27:21.650Z,13.82
2022-09-22T18:29:53.210Z,13.72
2022-09-22T18:32:25.165Z,14.16
2022-09-22T18:34:53.079Z,14.06
2022-09-22T18:37:21.399Z,13.55
2022-09-22T18:39:52.380Z,13.51
2022-09-22T18:42:24.361Z,14.03
2022-09-22T18:44:54.321Z,14.24
2022-09-22T18:47:23.339Z,14.46
2022-09-22T18:49:51.384Z,14.55
2022-09-22T18:52:23.052Z,14.58
2022-09-22T18:54:53.204Z,14.57
2022-09-22T18:57:21.452Z,14.68
2022-09-22T18:59:51.241Z,14.70
2022-09-22T19:02:22.846Z,15.03
2022-09-22T19:04:51.878Z,14.92
2022-09-22T19:07:41.558Z,14.84
2022-09-22T19:10:11.103Z,14.53
2022-09-22T19:12:39.783Z,13.56
2022-09-22T19:15:15.028Z,12.55
2022-09-22T19:17:45.914Z,12.73
2022-09-22T19:20:21.091Z,13.53
2022-09-22T19:22:49.355Z,13.76
2022-09-22T19:25:16.950Z,13.76
2022-09-22T19:27:43.759Z,12.92
2022-09-22T19:30:11.600Z,12.28
2022-09-22T19:32:39.131Z,12.59
2022-09-22T19:35:09.545Z,12.24
2022-09-22T19:37:36.450Z,12.55
2022-09-22T19:40:04.636Z,13.00
2022-09-22T19:42:31.786Z,13.51
2022-09-22T19:44:59.250Z,13.22
2022-09-22T19:47:25.927Z,13.40
2022-09-22T19:49:52.685Z,13.27
2022-09-22T19:52:19.361Z,13.38
2022-09-22T19:54:45.996Z,13.25
2022-09-22T19:57:13.261Z,13.39
2022-09-22T19:59:40.282Z,13.60
2022-09-22T20:02:14.583Z,12.69
2022-09-22T20:04:41.291Z,12.72
2022-09-22T20:07:08.592Z,11.91
2022-09-22T20:09:35.576Z,11.57
2022-09-22T20:12:02.756Z,12.20
2022-09-22T20:14:31.449Z,12.64
2022-09-22T20:17:02.269Z,12.94
2022-09-22T20:19:31.526Z,12.79
2022-09-22T20:22:18.096Z,12.98
2022-09-22T20:24:53.944Z,13.28
2022-09-22T20:27:26.330Z,13.35
2022-09-22T20:29:57.005Z,13.68
2022-09-22T20:32:25.945Z,13.88
2022-09-22T20:34:54.245Z,13.82
2022-09-22T20:37:21.698Z,13.37
2022-09-22T20:39:48.380Z,13.59
2022-09-22T20:42:15.580Z,13.56
2022-09-22T20:44:42.381Z,13.47
2022-09-22T20:47:19.976Z,13.89
2022-09-22T20:49:51.350Z,13.81
2022-09-22T20:52:22.781Z,13.69
2022-09-22T20:54:49.440Z,13.17
2022-09-22T20:57:17.151Z,13.02
2022-09-22T20:59:45.855Z,13.08
2022-09-22T21:02:14.081Z,12.24
2022-09-22T21:04:41.329Z,12.91
2022-09-22T21:07:08.480Z,12.53
2022-09-22T21:09:53.762Z,12.16
2022-09-22T21:12:20.400Z,12.30
2022-09-22T21:14:47.092Z,12.76
2022-09-22T21:17:14.707Z,13.26
2022-09-22T21:19:41.384Z,13.65
2022-09-22T21:22:08.043Z,13.37
2022-09-22T21:24:34.867Z,13.45
2022-09-22T21:27:02.255Z,12.86
2022-09-22T21:29:29.558Z,13.02
2022-09-22T21:31:57.899Z,13.32
2022-09-22T21:34:25.159Z,13.60
2022-09-22T21:36:51.836Z,13.54
2022-09-22T21:39:18.834Z,12.74
2022-09-22T21:41:45.558Z,12.92
2022-09-22T21:44:12.351Z,13.38
2022-09-22T21:46:41.839Z,13.42
2022-09-22T21:49:09.890Z,13.47
2022-09-22T21:51:42.319Z,13.41
2022-09-22T21:54:15.081Z,12.98
2022-09-22T21:56:42.114Z,12.63
2022-09-22T21:59:09.496Z,12.94
2022-09-22T22:01:38.173Z,12.98
2022-09-22T22:04:10.283Z,13.27
2022-09-22T22:06:40.446Z,13.51
2022-09-22T22:09:12.400Z,13.51
2022-09-22T22:11:43.071Z,13.97
2022-09-22T22:14:11.817Z,13.70
2022-09-22T22:16:42.848Z,13.80
2022-09-22T22:19:14.996Z,13.39
2022-09-22T22:21:42.915Z,13.46
2022-09-22T22:24:18.680Z,13.52
2022-09-22T22:26:53.173Z,13.74
2022-09-22T22:29:21.348Z,13.97
2022-09-22T22:31:49.201Z,14.01
2022-09-22T22:34:21.050Z,13.87
2022-09-22T22:36:48.906Z,14.01
2022-09-22T22:39:15.773Z,13.72
2022-09-22T22:41:42.457Z,12.86
2022-09-22T22:44:09.146Z,13.12
2022-09-22T22:46:36.323Z,12.95
2022-09-22T22:49:03.373Z,13.22
2022-09-22T22:51:30.093Z,13.70
2022-09-22T22:53:56.832Z,13.63
2022-09-22T22:56:26.524Z,13.78
2022-09-22T22:58:53.394Z,13.74
2022-09-22T23:01:28.129Z,13.77
2022-09-22T23:03:58.819Z,13.76
2022-09-22T23:06:31.657Z,13.82
2022-09-22T23:08:58.603Z,13.67
2022-09-22T23:11:30.445Z,13.62
2022-09-22T23:14:03.237Z,13.48
2022-09-22T23:16:36.320Z,13.54
2022-09-22T23:19:09.353Z,13.57
2022-09-22T23:21:36.967Z,13.79
2022-09-22T23:24:05.291Z,13.81
2022-09-22T23:26:32.182Z,13.52
2022-09-22T23:28:59.646Z,13.63
2022-09-22T23:31:26.455Z,13.43
2022-09-22T23:33:53.678Z,13.34
2022-09-22T23:36:24.186Z,13.19
2022-09-22T23:39:04.638Z,12.65
2022-09-22T23:41:33.374Z,12.55
2022-09-22T23:44:00.407Z,12.78
2022-09-22T23:46:27.097Z,12.98
2022-09-22T23:48:55.759Z,13.17
2022-09-22T23:51:22.822Z,13.17
2022-09-22T23:53:49.595Z,12.65
2022-09-22T23:56:16.576Z,12.91
2022-09-22T23:58:43.215Z,13.14
